Time;durP1;ratioP1;P1;durP2;ratioP2;P2;SDS_P1;SDS_P2;PMS_P1;PMS_P2;Temp;Humidity;BMP_temperature;BMP_pressure;BME280_temperature;BME280_humidity;BME280_pressure;Samples;Min_cycle;Max_cycle;Signal;HPM_P1;HPM_P2
2021/04/18 00:00:31;;;;;;;43.13;23.38;;;;;;;6.41;79.53;100948.18;1754397;81;21124;-72
2021/04/18 00:02:59;;;;;;;59.03;31.95;;;;;;;6.29;79.51;100945.27;1756547;81;21175;-73
2021/04/18 00:05:28;;;;;;;66.75;35.95;;;;;;;6.25;79.56;100947.80;1756646;81;21147;-73
2021/04/18 00:08:02;;;;;;;55.25;32.10;;;;;;;6.25;79.55;100940.34;1756502;81;21126;-73
2021/04/18 00:10:24;;;;;;;56.90;30.60;;;;;;;6.20;79.58;100939.39;1755832;81;21131;-73
2021/04/18 00:12:50;;;;;;;43.87;23.98;;;;;;;6.04;79.62;100935.04;1756600;81;21138;-72
2021/04/18 00:15:16;;;;;;;48.70;26.90;;;;;;;5.97;79.68;100933.39;1756592;81;22083;-73
2021/04/18 00:17:43;;;;;;;62.17;34.27;;;;;;;5.91;79.70;100942.33;1756657;81;21146;-73
2021/04/18 00:20:13;;;;;;;63.45;34.73;;;;;;;5.79;79.74;100941.97;1756492;81;21174;-73
2021/04/18 00:22:40;;;;;;;70.40;37.98;;;;;;;5.78;79.79;100945.56;1756925;81;21579;-72
2021/04/18 00:25:07;;;;;;;56.90;32.67;;;;;;;5.77;79.78;100939.43;1756690;81;21099;-73
2021/04/18 00:27:34;;;;;;;57.08;35.15;;;;;;;5.78;79.78;100938.47;1756926;81;21831;-73
2021/04/18 00:30:00;;;;;;;57.78;35.25;;;;;;;5.81;79.80;100937.38;1756625;81;21166;-73
2021/04/18 00:32:27;;;;;;;58.60;35.25;;;;;;;5.86;79.80;100931.27;1748688;81;21219;-73
2021/04/18 00:34:53;;;;;;;88.78;49.13;;;;;;;5.86;79.81;100932.59;1726218;83;21148;-72
2021/04/18 00:37:19;;;;;;;82.22;46.42;;;;;;;5.81;79.83;100927.63;1726121;83;21549;-72
2021/04/18 00:39:46;;;;;;;133.52;70.35;;;;;;;5.83;79.87;100930.16;1726300;83;21969;-72
2021/04/18 00:42:13;;;;;;;189.57;87.02;;;;;;;5.84;79.90;100926.56;1738567;81;21182;-73
2021/04/18 00:44:39;;;;;;;132.05;62.50;;;;;;;5.83;79.95;100922.23;1756807;81;21126;-73
2021/04/18 00:47:05;;;;;;;128.25;58.55;;;;;;;5.81;80.00;100921.49;1756707;81;21103;-72
2021/04/18 00:49:32;;;;;;;102.17;49.60;;;;;;;5.79;80.02;100915.50;1756730;81;21119;-73
2021/04/18 00:51:58;;;;;;;53.15;30.62;;;;;;;5.78;80.06;100911.16;1756872;81;22146;-72
2021/04/18 00:54:24;;;;;;;55.98;31.42;;;;;;;5.82;80.06;100900.69;1756751;81;21159;-72
2021/04/18 00:56:50;;;;;;;45.48;27.02;;;;;;;5.86;80.07;100900.83;1756774;81;21163;-73
2021/04/18 00:59:17;;;;;;;50.25;28.35;;;;;;;5.89;80.10;100905.86;1756642;81;21998;-72
2021/04/18 01:01:43;;;;;;;140.75;69.50;;;;;;;5.92;80.13;100906.45;1756789;81;21567;-72
2021/04/18 01:04:10;;;;;;;125.65;63.83;;;;;;;5.96;80.19;100912.33;1756024;81;21201;-72
2021/04/18 01:06:36;;;;;;;105.35;54.38;;;;;;;5.97;80.22;100916.66;1755581;81;21103;-72
2021/04/18 01:09:03;;;;;;;90.42;47.45;;;;;;;5.97;80.26;100916.19;1756813;81;21576;-72
2021/04/18 01:11:29;;;;;;;107.50;51.95;;;;;;;5.95;80.30;100916.77;1756859;81;21151;-72
2021/04/18 01:13:55;;;;;;;131.95;59.85;;;;;;;5.89;80.35;100916.45;1756766;81;21135;-72
2021/04/18 01:16:21;;;;;;;89.80;46.37;;;;;;;5.89;80.41;100920.42;1756673;81;21241;-72
2021/04/18 01:18:48;;;;;;;107.47;50.45;;;;;;;5.89;80.46;100909.35;1756907;81;21178;-73
2021/04/18 01:21:14;;;;;;;86.53;44.38;;;;;;;5.90;80.50;100907.55;1756468;81;21146;-73
2021/04/18 01:23:41;;;;;;;78.78;40.65;;;;;;;5.89;80.51;100912.48;1756847;81;21181;-73
2021/04/18 01:26:08;;;;;;;74.27;36.85;;;;;;;5.88;80.53;100909.47;1756722;81;21119;-73
2021/04/18 01:28:34;;;;;;;54.77;30.77;;;;;;;5.86;80.57;100903.00;1756439;81;21620;-72
2021/04/18 01:31:02;;;;;;;42.43;25.52;;;;;;;5.88;80.61;100907.66;1756709;81;21172;-72
2021/04/18 01:33:28;;;;;;;38.02;23.20;;;;;;;5.90;80.65;100904.42;1730619;81;21127;-73
2021/04/18 01:35:54;;;;;;;39.63;23.75;;;;;;;5.93;80.69;100909.94;1726733;83;21667;-72
2021/04/18 01:38:20;;;;;;;39.63;22.93;;;;;;;5.98;80.70;100915.70;1748256;81;21146;-72
2021/04/18 01:40:47;;;;;;;41.08;24.67;;;;;;;5.98;80.72;100916.52;1756853;81;22049;-72
2021/04/18 01:43:15;;;;;;;43.80;25.82;;;;;;;5.99;80.78;100904.13;1756637;81;21131;-73
2021/04/18 01:45:42;;;;;;;46.90;25.75;;;;;;;6.05;80.80;100902.79;1756769;80;21139;-73
2021/04/18 01:48:09;;;;;;;41.02;25.37;;;;;;;6.11;80.85;100901.78;1756770;81;21529;-73
2021/04/18 01:50:41;;;;;;;52.48;26.37;;;;;;;6.17;80.87;100905.23;1756605;80;21138;-73
2021/04/18 01:53:08;;;;;;;41.15;24.37;;;;;;;6.19;80.88;100903.31;1754386;81;21322;-73
2021/04/18 01:55:35;;;;;;;39.10;24.00;;;;;;;6.17;80.94;100898.61;1756617;81;21195;-73
2021/04/18 01:58:03;;;;;;;52.48;36.70;;;;;;;6.16;81.00;100905.38;1756571;81;21187;-73
2021/04/18 02:00:29;;;;;;;93.78;45.67;;;;;;;6.17;81.03;100911.85;1756685;81;21138;-72
2021/04/18 02:02:56;;;;;;;83.95;42.85;;;;;;;6.18;81.03;100908.72;1753889;80;21100;-73
2021/04/18 02:05:22;;;;;;;79.72;39.05;;;;;;;6.17;81.08;100918.47;1753698;81;21251;-73
2021/04/18 02:07:49;;;;;;;49.60;29.92;;;;;;;6.19;81.15;100916.55;1753814;81;21636;-73
2021/04/18 02:10:16;;;;;;;49.40;27.70;;;;;;;6.21;81.16;100917.25;1751754;81;21135;-73
2021/04/18 02:12:43;;;;;;;46.53;27.22;;;;;;;6.19;81.21;100917.88;1753387;81;21163;-73
2021/04/18 02:15:10;;;;;;;49.53;28.62;;;;;;;6.20;81.24;100920.02;1753795;81;21134;-73
2021/04/18 02:17:37;;;;;;;44.18;27.55;;;;;;;6.23;81.28;100915.78;1753757;81;21560;-73
2021/04/18 02:20:06;;;;;;;44.55;27.45;;;;;;;6.27;81.31;100919.85;1753625;81;21214;-73
2021/04/18 02:22:32;;;;;;;46.98;27.85;;;;;;;6.29;81.36;100916.13;1753759;81;21175;-72
2021/04/18 02:24:59;;;;;;;69.00;51.13;;;;;;;6.29;81.39;100912.63;1726101;81;21135;-73
2021/04/18 02:27:27;;;;;;;75.45;61.40;;;;;;;6.25;81.42;100914.70;1753698;81;21144;-72
2021/04/18 02:29:56;;;;;;;86.70;71.72;;;;;;;6.21;81.45;100903.16;1753746;81;22106;-72
2021/04/18 02:32:23;;;;;;;70.45;54.38;;;;;;;6.19;81.51;100903.31;1753722;81;21167;-72
2021/04/18 02:34:49;;;;;;;56.92;40.83;;;;;;;6.16;81.52;100903.55;1753741;81;21154;-72
2021/04/18 02:40:09;;;;;;;39.65;26.02;;;;;;;6.19;81.60;100894.05;1851999;77;22451;-73
2021/04/18 02:42:35;;;;;;;40.75;24.40;;;;;;;6.14;81.64;100892.25;1824525;78;21575;-73
2021/04/18 02:45:03;;;;;;;43.40;25.48;;;;;;;6.12;81.68;100888.06;1827328;78;22163;-73
2021/04/18 02:47:30;;;;;;;38.92;24.85;;;;;;;6.12;81.71;100891.56;1827261;78;21199;-73
2021/04/18 02:49:56;;;;;;;37.70;23.38;;;;;;;6.12;81.76;100894.69;1827229;78;21139;-73
2021/04/18 02:52:23;;;;;;;41.42;26.00;;;;;;;6.12;81.80;100894.20;1827128;78;21203;-73
2021/04/18 02:54:51;;;;;;;41.33;25.25;;;;;;;6.11;81.84;100880.61;1827193;78;21581;-73
2021/04/18 02:57:17;;;;;;;44.58;24.37;;;;;;;6.08;81.87;100877.37;1826905;78;21644;-74
2021/04/18 02:59:44;;;;;;;37.10;23.80;;;;;;;6.07;81.91;100879.17;1827251;78;21151;-73
2021/04/18 03:02:10;;;;;;;41.75;26.95;;;;;;;6.04;81.95;100870.17;1824519;78;21154;-73
2021/04/18 03:04:37;;;;;;;39.48;24.75;;;;;;;5.99;81.97;100860.44;1827397;78;21139;-73
2021/04/18 03:07:03;;;;;;;47.20;28.15;;;;;;;5.97;82.00;100857.94;1827291;78;21155;-74
2021/04/18 03:09:30;;;;;;;46.45;32.17;;;;;;;5.95;82.03;100859.02;1827264;78;21231;-74
2021/04/18 03:11:56;;;;;;;71.82;55.50;;;;;;;5.95;82.05;100858.54;1827048;78;21139;-73
2021/04/18 03:14:22;;;;;;;62.78;48.20;;;;;;;5.96;82.10;100858.06;1822205;78;21147;-73
2021/04/18 03:16:49;;;;;;;52.67;33.20;;;;;;;5.95;82.13;100860.34;1791569;80;21546;-73
2021/04/18 03:19:15;;;;;;;51.10;31.12;;;;;;;5.93;82.19;100857.84;1791458;80;21111;-74
2021/04/18 03:21:41;;;;;;;50.58;31.50;;;;;;;5.91;82.22;100861.59;1791663;80;21917;-73
2021/04/18 03:24:08;;;;;;;52.08;32.63;;;;;;;5.89;82.25;100862.19;1791442;80;21171;-73
2021/04/18 03:26:35;;;;;;;60.12;36.48;;;;;;;5.90;82.27;100862.55;1791475;80;21219;-73
2021/04/18 03:29:03;;;;;;;61.13;34.65;;;;;;;5.94;82.31;100861.33;1791560;80;21151;-73
2021/04/18 03:31:29;;;;;;;58.55;34.15;;;;;;;5.98;82.36;100860.92;1791744;78;21143;-73
2021/04/18 03:33:56;;;;;;;60.33;35.05;;;;;;;5.98;82.40;100854.82;1791603;80;21945;-73
2021/04/18 03:36:22;;;;;;;61.08;36.28;;;;;;;5.94;82.45;100854.72;1791437;80;21159;-74
2021/04/18 03:38:49;;;;;;;61.65;35.60;;;;;;;5.94;82.48;100852.07;1786844;79;21125;-74
2021/04/18 03:41:15;;;;;;;57.70;33.28;;;;;;;5.96;82.49;100852.28;1777245;80;21196;-73
2021/04/18 03:43:41;;;;;;;50.48;31.82;;;;;;;5.97;82.53;100847.84;1777359;80;21164;-74
2021/04/18 03:46:08;;;;;;;48.48;31.27;;;;;;;5.94;82.58;100841.48;1777396;80;21261;-74
2021/04/18 03:48:34;;;;;;;52.58;31.62;;;;;;;5.93;82.59;100839.80;1755801;80;21159;-74
2021/04/18 03:51:01;;;;;;;52.83;30.82;;;;;;;5.90;82.63;100839.58;1750152;81;21163;-73
2021/04/18 03:53:28;;;;;;;48.17;30.15;;;;;;;5.88;82.68;100840.17;1750085;82;21169;-73
2021/04/18 03:55:54;;;;;;;46.10;28.15;;;;;;;5.85;82.69;100833.78;1750095;81;21501;-74
2021/04/18 03:58:20;;;;;;;40.10;25.90;;;;;;;5.84;82.75;100836.58;1749698;82;21256;-73
2021/04/18 04:00:46;;;;;;;42.67;26.75;;;;;;;5.84;82.78;100840.03;1750042;82;21128;-74
2021/04/18 04:03:13;;;;;;;51.00;32.30;;;;;;;5.87;82.82;100841.64;1750085;81;21127;-74
2021/04/18 04:05:39;;;;;;;50.63;31.68;;;;;;;5.90;82.87;100844.87;1750180;82;21581;-73
2021/04/18 04:08:06;;;;;;;45.48;28.70;;;;;;;5.92;82.88;100842.08;1760352;80;21125;-74
2021/04/18 04:10:32;;;;;;;42.00;29.45;;;;;;;5.93;82.93;100839.80;1760584;80;21871;-74
2021/04/18 04:12:59;;;;;;;38.48;26.55;;;;;;;5.90;82.93;100836.93;1760874;81;21121;-73
2021/04/18 04:15:25;;;;;;;36.38;24.15;;;;;;;5.90;82.96;100841.38;1760839;81;21124;-74
2021/04/18 04:17:51;;;;;;;36.93;23.73;;;;;;;5.94;82.97;100850.27;1788398;80;21151;-74
2021/04/18 04:20:18;;;;;;;41.35;25.75;;;;;;;5.97;82.98;100851.33;1776314;80;21514;-75
2021/04/18 04:22:44;;;;;;;88.65;37.30;;;;;;;6.00;83.03;100856.84;1761064;80;21275;-74
2021/04/18 04:25:12;;;;;;;125.10;46.58;;;;;;;6.01;83.08;100859.38;1760947;81;21167;-74
2021/04/18 04:27:39;;;;;;;61.53;31.85;;;;;;;6.00;83.10;100859.48;1761225;80;21126;-74
2021/04/18 04:30:07;;;;;;;49.27;31.15;;;;;;;5.95;83.14;100853.72;1761162;81;21156;-75
2021/04/18 04:32:33;;;;;;;61.30;48.45;;;;;;;5.91;83.16;100854.98;1760853;81;21151;-74
2021/04/18 04:34:59;;;;;;;60.08;43.28;;;;;;;5.88;83.18;100857.86;1761239;81;22149;-74
2021/04/18 04:37:26;;;;;;;42.15;26.70;;;;;;;5.92;83.20;100865.90;1760955;81;21168;-74
2021/04/18 04:39:52;;;;;;;43.70;29.23;;;;;;;5.95;83.22;100868.28;1785476;79;21103;-74
2021/04/18 04:42:19;;;;;;;43.33;29.65;;;;;;;5.97;83.27;100859.27;1799569;79;21139;-74
2021/04/18 04:44:45;;;;;;;42.48;28.27;;;;;;;5.98;83.30;100865.41;1799478;79;21127;-74
2021/04/18 04:47:11;;;;;;;39.13;27.30;;;;;;;5.95;83.32;100873.58;1799682;79;21194;-74
2021/04/18 04:49:37;;;;;;;40.28;26.62;;;;;;;5.97;83.34;100862.39;1799512;79;21616;-74
2021/04/18 04:52:07;;;;;;;46.75;30.20;;;;;;;6.00;83.37;100852.87;1799948;79;22252;-74
2021/04/18 04:54:33;;;;;;;49.60;32.28;;;;;;;5.99;83.40;100857.31;1799593;79;21167;-74
2021/04/18 04:57:01;;;;;;;52.15;33.88;;;;;;;6.01;83.40;100854.08;1799714;79;21147;-74
2021/04/18 04:59:27;;;;;;;55.00;32.00;;;;;;;6.02;83.44;100857.53;1799701;79;21204;-74
2021/04/18 05:01:54;;;;;;;56.73;32.55;;;;;;;6.01;83.45;100854.55;1799611;79;21150;-74
2021/04/18 05:04:20;;;;;;;130.10;50.92;;;;;;;6.03;83.50;100855.25;1799687;79;21155;-74
2021/04/18 05:06:46;;;;;;;108.17;45.20;;;;;;;6.06;83.52;100860.77;1799739;79;21139;-74
2021/04/18 05:09:12;;;;;;;81.30;41.60;;;;;;;6.06;83.54;100860.28;1799710;79;21172;-74
2021/04/18 05:11:39;;;;;;;71.47;38.30;;;;;;;6.08;83.56;100865.46;1799306;79;21132;-74
2021/04/18 05:14:05;;;;;;;51.85;31.10;;;;;;;6.07;83.59;100861.13;1799650;79;21112;-73
2021/04/18 05:16:31;;;;;;;59.05;32.67;;;;;;;6.09;83.60;100871.94;1799644;79;21592;-74
2021/04/18 05:18:58;;;;;;;42.78;25.75;;;;;;;6.13;83.64;100870.70;1800532;78;21147;-74
2021/04/18 05:21:24;;;;;;;36.70;24.30;;;;;;;6.13;83.67;100866.73;1800788;78;21127;-74
2021/04/18 05:23:52;;;;;;;33.45;23.10;;;;;;;6.15;83.69;100867.47;1799425;79;21167;-74
2021/04/18 05:26:18;;;;;;;38.83;29.80;;;;;;;6.14;83.72;100859.64;1827738;78;21171;-74
2021/04/18 05:28:44;;;;;;;38.80;28.75;;;;;;;6.13;83.73;100858.80;1823049;78;21163;-74
2021/04/18 05:31:11;;;;;;;31.95;23.27;;;;;;;6.10;83.75;100859.05;1806965;78;21595;-73
2021/04/18 05:33:37;;;;;;;31.65;22.15;;;;;;;6.12;83.76;100857.62;1799590;79;21128;-73
2021/04/18 05:36:04;;;;;;;30.02;20.80;;;;;;;6.14;83.78;100861.80;1799674;79;21215;-73
2021/04/18 05:38:31;;;;;;;33.95;22.05;;;;;;;6.18;83.81;100861.06;1799766;78;21155;-73
2021/04/18 05:40:57;;;;;;;26.27;19.17;;;;;;;6.24;83.83;100861.38;1777994;79;21191;-73
2021/04/18 05:43:26;;;;;;;29.98;21.12;;;;;;;6.29;83.83;100857.86;1776919;80;21173;-73
2021/04/18 05:45:53;;;;;;;24.20;18.15;;;;;;;6.30;83.87;100858.19;1776566;80;21159;-73
2021/04/18 05:48:19;;;;;;;30.77;22.00;;;;;;;6.36;83.90;100861.66;1776832;80;22149;-73
2021/04/18 05:50:45;;;;;;;53.50;31.87;;;;;;;6.44;83.91;100865.80;1776765;80;21144;-73
2021/04/18 05:53:12;;;;;;;58.20;31.12;;;;;;;6.51;83.93;100865.62;1788865;80;21111;-73
2021/04/18 05:55:39;;;;;;;46.92;26.45;;;;;;;6.57;83.93;100863.42;1792283;80;21131;-73
2021/04/18 05:58:06;;;;;;;35.68;23.60;;;;;;;6.62;83.92;100865.17;1771869;80;21178;-73
2021/04/18 06:00:33;;;;;;;44.65;27.37;;;;;;;6.65;83.91;100868.91;1761085;81;21210;-73
2021/04/18 06:03:01;;;;;;;38.95;23.57;;;;;;;6.68;83.96;100864.18;1760637;81;21607;-73
2021/04/18 06:05:27;;;;;;;56.20;32.85;;;;;;;6.71;83.97;100859.94;1761027;81;22220;-73
2021/04/18 06:07:53;;;;;;;59.42;29.48;;;;;;;6.69;83.94;100859.20;1760807;81;21195;-74
2021/04/18 06:10:20;;;;;;;48.65;30.23;;;;;;;6.75;83.97;100859.18;1760952;81;21183;-74
2021/04/18 06:12:46;;;;;;;36.65;25.37;;;;;;;6.84;83.99;100863.66;1760966;81;21226;-73
2021/04/18 06:15:13;;;;;;;45.60;30.25;;;;;;;6.83;83.97;100865.47;1760680;81;21215;-74
2021/04/18 06:17:39;;;;;;;52.17;33.60;;;;;;;6.83;83.98;100865.95;1760890;81;21597;-74
2021/04/18 06:20:06;;;;;;;53.83;34.78;;;;;;;6.83;83.97;100870.77;1776543;80;21589;-74
2021/04/18 06:22:33;;;;;;;49.55;33.58;;;;;;;6.83;83.94;100869.92;1792482;80;21184;-74
2021/04/18 06:25:00;;;;;;;72.17;49.90;;;;;;;6.84;83.94;100870.29;1792160;80;21187;-73
2021/04/18 06:27:26;;;;;;;68.52;41.98;;;;;;;6.88;83.93;100863.75;1792202;80;21112;-74
2021/04/18 06:29:52;;;;;;;52.08;33.88;;;;;;;6.91;83.96;100863.47;1780625;80;21150;-74
2021/04/18 06:32:19;;;;;;;67.90;42.10;;;;;;;6.95;83.97;100868.86;1778602;80;21199;-74
2021/04/18 06:34:45;;;;;;;58.42;35.35;;;;;;;6.99;83.94;100867.63;1792177;80;21111;-74
2021/04/18 06:37:11;;;;;;;61.37;37.78;;;;;;;7.02;83.96;100868.67;1792257;79;21992;-74
2021/04/18 06:39:38;;;;;;;90.50;49.98;;;;;;;7.08;83.94;100867.28;1789089;78;21155;-74
2021/04/18 06:42:06;;;;;;;90.47;52.27;;;;;;;7.12;83.97;100866.88;1756168;81;21154;-73
2021/04/18 06:44:32;;;;;;;140.80;78.65;;;;;;;7.17;83.95;100864.67;1756522;81;21141;-74
2021/04/18 06:47:00;;;;;;;85.67;51.77;;;;;;;7.19;83.96;100866.69;1756404;81;21121;-74
2021/04/18 06:49:27;;;;;;;98.35;60.30;;;;;;;7.15;83.93;100876.37;1756291;81;21157;-74
2021/04/18 06:51:53;;;;;;;72.55;47.53;;;;;;;7.15;83.93;100873.72;1756351;81;21634;-73
2021/04/18 06:54:20;;;;;;;95.22;55.73;;;;;;;7.16;83.94;100876.25;1756329;81;21177;-74
2021/04/18 06:56:47;;;;;;;75.55;46.80;;;;;;;7.19;83.94;100873.31;1756392;81;21174;-74
2021/04/18 06:59:14;;;;;;;81.37;49.55;;;;;;;7.22;83.91;100877.02;1756189;81;21650;-73
2021/04/18 07:01:40;;;;;;;76.17;48.48;;;;;;;7.26;83.93;100873.61;1756508;81;21579;-73
2021/04/18 07:04:14;;;;;;;78.90;48.38;;;;;;;7.28;83.93;100872.48;1758571;80;21165;-73
2021/04/18 07:06:48;;;;;;;87.10;50.80;;;;;;;7.32;83.96;100871.72;1787508;80;21168;-73
2021/04/18 07:09:14;;;;;;;97.30;53.00;;;;;;;7.38;83.94;100881.32;1786595;80;21151;-74
2021/04/18 07:11:55;;;;;;;80.42;50.40;;;;;;;7.41;83.96;100883.70;1787180;80;21587;-73
2021/04/18 07:14:35;;;;;;;99.75;57.98;;;;;;;7.41;83.96;100888.16;1787672;80;21255;-74
2021/04/18 07:17:09;;;;;;;97.85;55.48;;;;;;;7.43;83.95;100883.54;1787537;80;21192;-73
2021/04/18 07:19:37;;;;;;;96.28;55.45;;;;;;;7.46;83.89;100882.78;1765122;80;21139;-73
2021/04/18 07:22:03;;;;;;;97.80;56.60;;;;;;;7.44;83.93;100883.42;1737973;82;21610;-73
2021/04/18 07:24:30;;;;;;;95.95;56.08;;;;;;;7.43;83.93;100887.04;1727694;81;21168;-73
2021/04/18 07:27:02;;;;;;;107.40;60.88;;;;;;;7.42;83.94;100888.52;1723111;83;21278;-74
2021/04/18 07:29:31;;;;;;;101.05;55.45;;;;;;;7.46;83.90;100885.91;1702896;84;21155;-74
2021/04/18 07:31:59;;;;;;;95.17;54.55;;;;;;;7.50;83.90;100890.81;1758102;80;21192;-74
2021/04/18 07:34:28;;;;;;;89.85;51.68;;;;;;;7.53;83.87;100895.84;1757804;81;21180;-73
2021/04/18 07:37:11;;;;;;;96.12;54.00;;;;;;;7.60;83.85;100895.31;1756818;81;21203;-73
2021/04/18 07:39:54;;;;;;;76.25;43.45;;;;;;;7.66;83.87;100889.44;1756396;81;21168;-73
2021/04/18 07:42:41;;;;;;;60.10;36.45;;;;;;;7.64;83.88;100893.55;1771045;81;21192;-74
2021/04/18 07:45:15;;;;;;;49.48;31.48;;;;;;;7.63;83.88;100891.89;1755782;81;21211;-74
2021/04/18 07:47:44;;;;;;;57.93;35.48;;;;;;;7.61;83.86;100891.66;1771632;81;21208;-74
2021/04/18 07:50:22;;;;;;;;;;;;;;;7.58;83.86;100891.94;1757916;81;21164;-74
2021/04/18 07:52:49;;;;;;;47.83;30.02;;;;;;;7.66;83.85;100897.41;1755834;81;22157;-74
2021/04/18 07:55:16;;;;;;;48.20;30.85;;;;;;;7.67;83.83;100891.94;1755358;81;21144;-74
2021/04/18 07:57:43;;;;;;;48.80;30.17;;;;;;;7.71;83.78;100895.16;1747986;81;21200;-74
2021/04/18 08:00:11;;;;;;;56.48;33.13;;;;;;;7.74;83.77;100898.37;1737440;82;21147;-74
2021/04/18 08:02:39;;;;;;;57.03;32.98;;;;;;;7.80;83.80;100903.62;1738863;81;21219;-74
2021/04/18 08:05:08;;;;;;;55.50;33.15;;;;;;;7.85;83.79;100902.70;1737327;82;21637;-74
2021/04/18 08:08:13;;;;;;;71.65;35.73;;;;;;;7.89;83.82;100901.45;1737511;82;21186;-74
2021/04/18 08:10:45;;;;;;;66.70;33.42;;;;;;;7.90;83.81;100907.12;1760179;81;21568;-74
2021/04/18 08:13:21;;;;;;;51.85;31.27;;;;;;;7.80;83.81;100907.61;1768091;81;21143;-74
2021/04/18 08:16:03;;;;;;;53.13;30.20;;;;;;;7.78;83.85;100908.22;1767569;81;21171;-74
2021/04/18 08:18:33;;;;;;;61.45;33.45;;;;;;;7.77;83.83;100909.22;1764457;81;22067;-74
2021/04/18 08:21:00;;;;;;;51.53;30.52;;;;;;;7.80;83.85;100908.45;1736713;82;21167;-74
2021/04/18 08:23:36;;;;;;;38.42;26.93;;;;;;;7.80;83.82;100914.25;1737065;82;21186;-74
2021/04/18 08:26:11;;;;;;;42.88;26.45;;;;;;;7.79;83.83;100912.56;1737009;82;21171;-74
2021/04/18 08:28:59;;;;;;;43.80;26.95;;;;;;;7.85;83.85;100914.16;1736862;82;21183;-74
2021/04/18 08:31:31;;;;;;;41.63;26.42;;;;;;;7.90;83.88;100908.44;1737004;82;21251;-74
2021/04/18 08:34:01;;;;;;;57.00;31.25;;;;;;;7.92;83.88;100910.45;1751536;81;21148;-74
2021/04/18 08:36:31;;;;;;;48.78;29.12;;;;;;;7.87;83.90;100916.70;1737916;81;21167;-74
2021/04/18 08:39:09;;;;;;;45.08;27.80;;;;;;;7.82;83.88;100917.59;1736770;82;21175;-74
2021/04/18 08:41:46;;;;;;;51.53;32.13;;;;;;;7.75;83.86;100917.80;1728439;82;21159;-74
2021/04/18 08:44:19;;;;;;;56.65;32.60;;;;;;;7.71;83.85;100911.08;1733587;81;21202;-75
2021/04/18 08:46:50;;;;;;;55.30;35.17;;;;;;;7.77;83.88;100915.86;1742070;81;21127;-75
2021/04/18 08:49:39;;;;;;;64.15;34.85;;;;;;;7.83;83.86;100916.62;1715450;83;21582;-76
2021/04/18 08:52:21;;;;;;;45.33;30.45;;;;;;;7.83;83.87;100912.63;1713845;82;21191;-75
2021/04/18 08:54:48;;;;;;;49.60;29.85;;;;;;;7.98;83.85;100914.74;1719687;82;21613;-75
2021/04/18 08:57:22;;;;;;;44.93;28.67;;;;;;;8.07;83.85;100917.52;1758865;81;22111;-75
2021/04/18 08:59:55;;;;;;;49.50;29.07;;;;;;;8.01;83.81;100910.96;1696247;84;21633;-75
2021/04/18 09:02:22;;;;;;;49.15;29.98;;;;;;;8.09;83.79;100915.09;1733725;81;21122;-74
2021/04/18 09:04:51;;;;;;;50.33;28.35;;;;;;;8.20;83.81;100899.48;1732557;81;21340;-75
2021/04/18 09:07:19;;;;;;;49.93;30.62;;;;;;;8.35;83.80;100905.55;1758984;80;21203;-75
2021/04/18 09:09:47;;;;;;;44.15;27.48;;;;;;;8.50;83.76;100901.95;1756635;80;22089;-75
2021/04/18 09:12:15;;;;;;;42.15;24.92;;;;;;;8.67;83.76;100903.02;1789722;80;21194;-75
2021/04/18 09:14:45;;;;;;;40.00;25.30;;;;;;;8.82;83.75;100902.89;1767202;80;21591;-75
2021/04/18 09:17:34;;;;;;;47.30;30.20;;;;;;;8.86;83.72;100897.63;1757724;80;21591;-75
2021/04/18 09:20:08;;;;;;;54.48;32.83;;;;;;;9.00;83.70;100899.81;1753585;81;21203;-75
2021/04/18 09:22:39;;;;;;;51.90;30.97;;;;;;;9.15;83.71;100896.17;1727948;83;21193;-75
2021/04/18 09:25:15;;;;;;;55.08;33.60;;;;;;;9.31;83.71;100897.19;1735871;81;21161;-76
2021/04/18 09:27:48;;;;;;;67.12;40.30;;;;;;;9.42;83.64;100894.31;1756033;81;21191;-76
2021/04/18 09:30:20;;;;;;;69.95;42.73;;;;;;;9.39;83.49;100898.58;1751208;81;21087;-75
2021/04/18 09:32:52;;;;;;;67.70;41.10;;;;;;;9.48;83.43;100896.37;1728054;80;21115;-76
2021/04/18 09:35:21;;;;;;;67.92;40.83;;;;;;;9.64;83.42;100900.19;1698403;84;21259;-76
2021/04/18 09:38:02;;;;;;;75.12;43.92;;;;;;;9.65;83.32;100901.35;1728324;82;21169;-75
2021/04/18 09:40:32;;;;;;;56.25;36.13;;;;;;;9.68;83.35;100903.70;1731710;81;21123;-75
2021/04/18 09:42:59;;;;;;;;;;;;;;;9.70;83.27;100904.41;1758342;81;21413;-76
2021/04/18 09:45:31;;;;;;;57.33;36.23;;;;;;;9.78;83.17;100900.99;1756457;81;20646;-75
2021/04/18 09:48:13;;;;;;;54.33;35.13;;;;;;;9.70;83.06;100914.22;1756022;81;21605;-76
2021/04/18 09:50:40;;;;;;;66.33;40.67;;;;;;;9.59;83.03;100911.28;1756387;81;21131;-76
2021/04/18 09:53:25;;;;;;;92.47;55.00;;;;;;;9.56;82.98;100905.42;1756053;81;21144;-75
2021/04/18 09:56:00;;;;;;;54.67;34.30;;;;;;;9.46;82.89;100912.97;1756228;81;21120;-75
2021/04/18 09:58:32;;;;;;;56.63;35.17;;;;;;;9.32;82.84;100905.48;1756477;81;21184;-75
2021/04/18 10:01:03;;;;;;;52.10;34.15;;;;;;;9.18;82.75;100913.16;1755326;81;21265;-75
2021/04/18 10:03:41;;;;;;;53.17;32.75;;;;;;;9.17;82.75;100914.98;1766831;80;21669;-75
2021/04/18 10:06:08;;;;;;;62.73;37.03;;;;;;;9.12;82.68;100911.07;1749203;81;21167;-76
2021/04/18 10:08:36;;;;;;;57.60;37.28;;;;;;;9.14;82.66;100908.63;1745267;81;21231;-75
2021/04/18 10:11:11;;;;;;;63.75;36.98;;;;;;;9.20;82.63;100911.18;1734493;81;21138;-75
2021/04/18 10:13:58;;;;;;;65.95;40.73;;;;;;;9.22;82.62;100907.38;1740335;81;22323;-75
2021/04/18 10:16:42;;;;;;;61.88;38.85;;;;;;;9.31;82.59;100906.50;1750366;81;21212;-75
2021/04/18 10:19:18;;;;;;;74.37;45.03;;;;;;;9.40;82.54;100904.75;1759362;81;21727;-75
2021/04/18 10:21:47;;;;;;;66.60;40.80;;;;;;;9.51;82.46;100908.05;1739875;81;21232;-75
2021/04/18 10:24:41;;;;;;;91.85;53.30;;;;;;;9.61;82.44;100909.78;1743385;81;21195;-75
2021/04/18 10:27:09;;;;;;;76.72;44.27;;;;;;;9.71;82.39;100909.25;1729177;83;21241;-75
2021/04/18 10:29:36;;;;;;;71.12;48.60;;;;;;;9.69;82.32;100913.88;1742192;81;21210;-75
2021/04/18 10:32:03;;;;;;;69.97;41.05;;;;;;;9.84;82.37;100907.03;1732669;82;21603;-75
2021/04/18 10:34:30;;;;;;;63.15;36.75;;;;;;;10.06;82.30;100912.39;1729221;83;21199;-75
2021/04/18 10:36:56;;;;;;;63.20;38.05;;;;;;;10.25;82.21;100923.73;1737155;81;21148;-75
2021/04/18 10:39:22;;;;;;;63.48;38.23;;;;;;;10.24;82.12;100914.58;1737841;81;21964;-75
2021/04/18 10:41:50;;;;;;;70.72;46.83;;;;;;;10.15;82.04;100909.66;1723125;82;21621;-75
2021/04/18 10:44:16;;;;;;;106.80;61.58;;;;;;;10.06;82.02;100915.89;1745474;82;21598;-75
2021/04/18 10:46:48;;;;;;;81.60;46.92;;;;;;;10.00;81.99;100913.83;1727608;82;21175;-75
2021/04/18 10:49:27;;;;;;;95.05;63.35;;;;;;;9.85;81.90;100910.05;1873133;75;22879;-76
2021/04/18 10:51:55;;;;;;;79.97;46.63;;;;;;;9.76;81.87;100916.27;1851584;77;21132;-76
2021/04/18 10:54:21;;;;;;;189.25;137.45;;;;;;;9.67;81.78;100921.19;1851114;77;21181;-75
2021/04/18 10:56:49;;;;;;;97.80;55.65;;;;;;;9.45;81.70;100920.63;1850967;77;21056;-75
2021/04/18 10:59:16;;;;;;;92.80;50.95;;;;;;;9.29;81.71;100926.27;1839812;77;21184;-75
2021/04/18 11:01:42;;;;;;;75.70;44.25;;;;;;;9.15;81.65;100931.57;1825178;78;21185;-75
2021/04/18 11:04:10;;;;;;;98.67;65.55;;;;;;;9.08;81.64;100927.82;1825316;78;21616;-76
2021/04/18 11:06:37;;;;;;;84.30;49.70;;;;;;;9.11;81.67;100916.91;1832493;77;21199;-75
2021/04/18 11:09:05;;;;;;;86.40;50.67;;;;;;;9.20;81.64;100921.34;1859059;77;21033;-75
2021/04/18 11:11:31;;;;;;;125.95;66.82;;;;;;;9.19;81.62;100920.98;1829482;77;21575;-75
2021/04/18 11:13:58;;;;;;;97.75;54.85;;;;;;;9.22;81.60;100920.67;1821654;77;21144;-76
2021/04/18 11:16:25;;;;;;;86.82;46.80;;;;;;;9.37;81.61;100915.20;1850098;77;21227;-76
2021/04/18 11:18:52;;;;;;;94.95;53.25;;;;;;;9.47;81.59;100915.98;1842016;77;21933;-75
2021/04/18 11:21:18;;;;;;;87.02;46.33;;;;;;;9.65;81.59;100911.16;1840246;76;21155;-75
2021/04/18 11:23:44;;;;;;;66.62;41.00;;;;;;;9.76;81.54;100917.11;1845906;76;21126;-75
2021/04/18 11:26:11;;;;;;;70.15;39.75;;;;;;;9.76;81.48;100921.59;1840879;77;21092;-75